ADDS METAR Data INFO
IDs: Format: Raw Decoded Include TAF

Data at: 0111 UTC 21 Oct 2017

KAYS 210055Z AUTO 11006KT 10SM CLR 21/18 A3017 RMK AO2 T02110182
KAYS 210035Z AUTO 11005KT 10SM CLR 21/18 A3017 RMK AO2 T02110179
KAYS 210015Z AUTO 11005KT 10SM CLR 22/18 A3018 RMK AO2 T02170176
KAYS 202355Z AUTO 11006KT 10SM CLR 22/17 A3017 RMK AO2 T02240173 10289 20224
KAYS 202335Z AUTO 12006KT 10SM CLR 23/17 A3017 RMK AO2 T02340170
KAYS 202315Z AUTO 13007KT 10SM CLR 24/17 A3016 RMK AO2 T02370170
KAYS 202255Z AUTO 12008KT 10SM CLR 24/17 A3016 RMK AO2 T02440170
KAYS 202235Z AUTO 13008KT 10SM CLR 25/16 A3015 RMK AO2 T02530163
KAYS 202215Z AUTO 12007KT 10SM CLR 26/16 A3015 RMK AO2 T02620159
KAYS 202155Z AUTO 10008KT 10SM SCT046 SCT055 27/15 A3015 RMK AO2 T02690150
KAYS 202135Z AUTO 09009KT 10SM BKN046 BKN055 27/15 A3015 RMK AO2 T02740147
KAYS 202115Z AUTO 14004KT 10SM SCT046 SCT055 28/14 A3015 RMK AO2 T02780143
KAYS 202055Z AUTO 12008KT 10SM SCT049 28/14 A3015 RMK AO2 T02790138
KAYS 202035Z AUTO 07006KT 10SM SCT049 29/13 A3015 RMK AO2 T02850134
KAYS 202015Z AUTO 10004KT 10SM CLR 28/13 A3015 RMK AO2 T02820133
KAYS 201955Z AUTO 11004KT 10SM CLR 28/12 A3016 RMK AO2 T02760123
KAYS 201935Z AUTO 15004KT 10SM CLR 28/12 A3016 RMK AO2 T02820116
KAYS 201915Z AUTO 08004KT 10SM SCT048 28/11 A3016 RMK AO2 T02830106
KAYS 201855Z AUTO 07006KT 10SM SCT048 27/14 A3017 RMK AO2 T02700136
KAYS 201835Z AUTO 06007KT 7SM SCT044 28/14 A3017 RMK AO2 T02750141
KAYS 201815Z AUTO 09010G14KT 10SM CLR 28/14 A3018 RMK AO2 T02800139
KAYS 201755Z AUTO 09005KT 10SM CLR 28/13 A3019 RMK AO2 T02780134 10281 20132
KAYS 201735Z AUTO 06006KT 7SM CLR 27/14 A3020 RMK AO2 T02720140
KAYS 201715Z AUTO 11009KT 5SM HZ CLR 27/15 A3021 RMK AO2 T02710147
KAYS 201655Z AUTO 07005KT 10SM CLR 27/14 A3022 RMK AO2 T02650144
KAYS 201635Z AUTO 08006KT 10SM CLR 26/15 A3023 RMK AO2 T02610145
KAYS 201615Z AUTO 09006KT 10SM CLR 26/14 A3023 RMK AO2 T02570142
KAYS 201555Z AUTO 09007KT 10SM CLR 25/14 A3024 RMK AO2 T02540141
KAYS 201535Z AUTO 09004KT 10SM CLR 25/14 A3025 RMK AO2 T02460136
KAYS 201515Z AUTO 05006KT 10SM CLR 24/13 A3025 RMK AO2 T02400132
KAYS 201455Z AUTO 08005KT 10SM CLR 24/13 A3025 RMK AO2 T02370132
KAYS 201435Z AUTO 06007KT 10SM CLR 23/13 A3025 RMK AO2 T02260131
KAYS 201415Z AUTO 06007KT 10SM CLR 22/13 A3025 RMK AO2 T02150130
KAYS 201355Z AUTO 05006KT 10SM CLR 21/14 A3025 RMK AO2 T02060138
KAYS 201335Z AUTO 06006KT 10SM CLR 19/14 A3025 RMK AO2 T01910141
KAYS 201315Z AUTO 05005KT 10SM CLR 18/14 A3025 RMK AO2 T01760144
KAYS 201255Z AUTO 00000KT 10SM CLR 17/15 A3024 RMK AO2 T01660151
KAYS 201235Z AUTO 04003KT 10SM CLR 15/14 A3023 RMK AO2 T01530138
KAYS 201215Z AUTO 00000KT 10SM CLR 14/12 A3022 RMK AO2 T01360121
KAYS 201155Z AUTO 00000KT 10SM CLR 14/12 A3022 RMK AO2 T01350120 10147 20131
KAYS 201135Z AUTO 00000KT 10SM CLR 14/12 A3022 RMK AO2 T01360121
KAYS 201115Z AUTO 00000KT 10SM CLR 13/12 A3022 RMK AO2 T01320116
KAYS 201055Z AUTO 02003KT 10SM CLR 13/12 A3021 RMK AO2 T01330118
KAYS 201035Z AUTO 00000KT 10SM CLR 14/12 A3021 RMK AO2 T01350120
KAYS 201015Z AUTO 01003KT 10SM CLR 14/12 A3021 RMK AO2 T01360121
KAYS 200955Z AUTO 00000KT 5SM BR CLR 14/12 A3020 RMK AO2 T01350120
KAYS 200935Z AUTO 00000KT 10SM CLR 14/12 A3020 RMK AO2 T01380122
KAYS 200915Z AUTO 00000KT 10SM CLR 14/12 A3020 RMK AO2 T01360121
KAYS 200855Z AUTO 00000KT 7SM CLR 15/13 A3019 RMK AO2 T01450129
KAYS 200835Z AUTO 00000KT 10SM CLR 14/13 A3019 RMK AO2 T01430128
KAYS 200815Z AUTO 00000KT 10SM CLR 14/13 A3019 RMK AO2 T01420127
KAYS 200755Z AUTO 00000KT 10SM CLR 14/12 A3019 RMK AO2 T01390124
KAYS 200735Z AUTO 00000KT 10SM CLR 14/13 A3020 RMK AO2 T01400125
KAYS 200715Z AUTO 00000KT 3SM BR CLR 14/13 A3020 RMK AO2 T01420126
KAYS 200655Z AUTO 00000KT 10SM CLR 14/13 A3020 RMK AO2 T01440128
KAYS 200635Z AUTO 00000KT 10SM CLR 15/13 A3020 RMK AO2 T01470131
KAYS 200615Z AUTO 00000KT 10SM CLR 14/13 A3020 RMK AO2 T01410126
KAYS 200555Z AUTO 00000KT 10SM CLR 14/12 A3020 RMK AO2 T01370122 10205 20137
KAYS 200535Z AUTO 00000KT 10SM CLR 15/13 A3020 RMK AO2 T01450129
KAYS 200515Z AUTO 00000KT 10SM CLR 15/13 A3020 RMK AO2 T01490132
KAYS 200455Z AUTO 00000KT 10SM CLR 15/13 A3020 RMK AO2 T01490133 402840135
KAYS 200435Z AUTO 00000KT 10SM CLR 15/14 A3021 RMK AO2 T01520136
KAYS 200415Z AUTO 00000KT 10SM CLR 15/13 A3021 RMK AO2 T01490133
KAYS 200355Z AUTO 02003KT 10SM CLR 15/14 A3021 RMK AO2 T01510135
KAYS 200335Z AUTO 00000KT 10SM CLR 16/15 A3022 RMK AO2 T01600145
KAYS 200315Z AUTO 00000KT 10SM CLR 17/15 A3021 RMK AO2 T01660150
KAYS 200255Z AUTO 00000KT 10SM CLR 16/15 A3021 RMK AO2 T01640149
KAYS 200235Z AUTO 00000KT 10SM CLR 17/15 A3020 RMK AO2 T01680151
KAYS 200215Z AUTO 00000KT 10SM CLR 18/16 A3020 RMK AO2 T01750155
KAYS 200155Z AUTO 09003KT 10SM CLR 19/16 A3020 RMK AO2 T01860155
KAYS 200135Z AUTO 07003KT 10SM CLR 20/15 A3020 RMK AO2 T01960152
KAYS 200115Z AUTO 10003KT 10SM CLR 20/16 A3020 RMK AO2 T01950155
KAYS 200055Z AUTO 08003KT 10SM CLR 19/16 A3019 RMK AO2 T01900157
KAYS 200035Z AUTO 11003KT 10SM CLR 19/16 A3019 RMK AO2 T01900160
KAYS 200015Z AUTO 09003KT 10SM CLR 20/16 A3018 RMK AO2 T01980159
KAYS 192355Z AUTO 00000KT 10SM CLR 21/15 A3018 RMK AO2 T02090153 10284 20209
KAYS 192335Z AUTO 00000KT 10SM CLR 22/16 A3018 RMK AO2 T02180155
KAYS 192315Z AUTO 07003KT 10SM CLR 23/14 A3017 RMK AO2 T02300142
KAYS 192255Z AUTO 07003KT 10SM CLR 24/14 A3017 RMK AO2 T02410139
KAYS 192235Z AUTO 06004KT 10SM CLR 25/14 A3016 RMK AO2 T02520136
KAYS 192215Z AUTO 06006KT 10SM CLR 26/13 A3016 RMK AO2 T02600131
KAYS 192155Z AUTO 07006KT 10SM CLR 27/13 A3016 RMK AO2 T02650132
KAYS 192135Z AUTO 08007KT 10SM CLR 27/13 A3015 RMK AO2 T02700126
KAYS 192115Z AUTO 04007KT 10SM CLR 28/12 A3015 RMK AO2 T02750123
KAYS 192055Z AUTO 06009KT 10SM CLR 28/13 A3015 RMK AO2 T02760125
KAYS 192035Z AUTO 08010G14KT 10SM CLR 28/12 A3015 RMK AO2 T02760121
KAYS 192015Z AUTO 09007KT 050V110 10SM CLR 28/12 A3016 RMK AO2 T02790122
KAYS 191955Z AUTO 07005KT 10SM CLR 28/13 A3016 RMK AO2 T02830127
KAYS 191935Z AUTO 10007KT 10SM CLR 28/13 A3017 RMK AO2 T02770125
KAYS 191915Z AUTO 05008G14KT 10SM CLR 28/14 A3017 RMK AO2 T02760136
KAYS 191855Z AUTO 04004G14KT 10SM CLR 27/14 A3018 RMK AO2 T02720135
KAYS 191835Z AUTO 03006KT 10SM CLR 27/14 A3018 RMK AO2 T02720135
KAYS 191815Z AUTO 05005G15KT 10SM CLR 27/14 A3019 RMK AO2 T02680135
KAYS 191755Z AUTO 08008KT 10SM CLR 27/13 A3020 RMK AO2 T02670133 10271 20145
KAYS 191735Z AUTO 07010G16KT 10SM CLR 27/13 A3021 RMK AO2 T02670133
KAYS 191715Z AUTO 05009G17KT 10SM CLR 27/13 A3022 RMK AO2 T02670134
KAYS 191655Z AUTO 07010G17KT 10SM CLR 26/14 A3023 RMK AO2 T02610135
KAYS 191635Z AUTO 06012G17KT 10SM CLR 26/14 A3024 RMK AO2 T02580135
KAYS 191615Z AUTO 06009KT 10SM CLR 26/14 A3025 RMK AO2 T02560137
KAYS 191555Z AUTO 06011G15KT 10SM CLR 25/14 A3025 RMK AO2 T02540137
KAYS 191535Z AUTO 04013KT 10SM CLR 25/14 A3025 RMK AO2 T02490137
KAYS 191515Z AUTO 07008KT 10SM CLR 24/14 A3025 RMK AO2 T02400136
KAYS 191455Z AUTO 07008KT 10SM CLR 23/14 A3025 RMK AO2 T02310137
KAYS 191435Z AUTO 04010G14KT 10SM CLR 22/14 A3025 RMK AO2 T02200137
KAYS 191415Z AUTO 08009KT 10SM CLR 21/14 A3024 RMK AO2 T02110140
KAYS 191355Z AUTO 07006KT 10SM CLR 20/14 A3024 RMK AO2 T02020141
KAYS 191335Z AUTO 06006KT 10SM CLR 19/14 A3023 RMK AO2 T01910140
KAYS 191315Z AUTO 06006KT 10SM CLR 18/14 A3023 RMK AO2 T01800140